createdAt,value
2023-03-14T00:00:01.091Z,0.73
2023-03-14T00:02:30.231Z,0.80
2023-03-14T00:04:58.125Z,0.90
2023-03-14T00:07:26.363Z,0.70
2023-03-14T00:09:54.273Z,0.63
2023-03-14T00:12:22.084Z,0.83
2023-03-14T00:14:49.821Z,0.70
2023-03-14T00:17:17.589Z,0.60
2023-03-14T00:19:46.679Z,0.70
2023-03-14T00:22:14.468Z,0.80
2023-03-14T00:24:42.211Z,0.60
2023-03-14T00:27:09.984Z,0.80
2023-03-14T00:29:37.925Z,0.77
2023-03-14T00:32:06.038Z,0.97
2023-03-14T00:34:34.757Z,0.90
2023-03-14T00:37:03.895Z,0.73
2023-03-14T00:39:31.665Z,0.60
2023-03-14T00:41:59.444Z,0.60
2023-03-14T00:44:27.237Z,0.77
2023-03-14T00:46:55.071Z,0.70
2023-03-14T00:49:23.134Z,0.80
2023-03-14T00:51:52.359Z,0.80
2023-03-14T00:54:22.342Z,0.60
2023-03-14T00:56:50.088Z,0.73
2023-03-14T00:59:18.535Z,1.00
2023-03-14T01:01:46.351Z,0.97
2023-03-14T01:04:14.161Z,0.80
2023-03-14T01:06:42.009Z,0.80
2023-03-14T01:09:09.854Z,1.10
2023-03-14T01:11:38.959Z,0.80
2023-03-14T01:14:06.969Z,0.70
2023-03-14T01:16:36.784Z,0.97
2023-03-14T01:19:05.317Z,0.70
2023-03-14T01:21:35.095Z,0.93
2023-03-14T01:24:05.333Z,1.00
2023-03-14T01:26:34.922Z,0.80
2023-03-14T01:29:05.080Z,0.90
2023-03-14T01:31:32.928Z,0.83
2023-03-14T01:34:00.845Z,1.13
2023-03-14T01:36:30.605Z,1.00
2023-03-14T01:38:59.506Z,1.27
2023-03-14T01:41:27.904Z,1.07
2023-03-14T01:43:55.867Z,0.80
2023-03-14T01:46:33.893Z,0.90
2023-03-14T01:49:07.958Z,1.10
2023-03-14T01:51:42.663Z,1.10
2023-03-14T01:54:15.682Z,0.90
2023-03-14T01:56:45.157Z,1.10
2023-03-14T01:59:14.021Z,0.90
2023-03-14T02:01:46.468Z,0.80
2023-03-14T02:04:14.915Z,1.30
2023-03-14T02:06:51.806Z,1.10
2023-03-14T02:09:20.485Z,1.20
2023-03-14T02:11:48.582Z,0.87
2023-03-14T02:14:26.713Z,0.70
2023-03-14T02:16:56.014Z,0.93
2023-03-14T02:19:42.884Z,1.20
2023-03-14T02:22:13.736Z,1.10
2023-03-14T02:24:48.804Z,1.00
2023-03-14T02:27:19.544Z,1.00
2023-03-14T02:29:52.804Z,1.00
2023-03-14T02:32:21.914Z,1.17
2023-03-14T02:34:53.884Z,1.00
2023-03-14T02:37:24.262Z,1.00
2023-03-14T02:39:52.391Z,1.20
2023-03-14T02:42:22.470Z,0.70
2023-03-14T02:44:53.437Z,0.80
2023-03-14T02:47:24.496Z,0.80
2023-03-14T02:49:55.572Z,0.80
2023-03-14T02:52:23.314Z,1.10
2023-03-14T02:54:51.055Z,1.13
2023-03-14T02:57:18.782Z,0.93
2023-03-14T02:59:47.886Z,0.83
2023-03-14T03:02:15.666Z,0.80
2023-03-14T03:04:43.451Z,0.93
2023-03-14T03:07:11.290Z,0.80
2023-03-14T03:09:39.064Z,0.97
2023-03-14T03:12:07.255Z,1.03
2023-03-14T03:14:35.010Z,0.80
2023-03-14T03:17:04.108Z,1.10
2023-03-14T03:19:31.997Z,0.90
2023-03-14T03:21:59.803Z,1.20
2023-03-14T03:24:27.806Z,1.50
2023-03-14T03:26:55.578Z,1.00
2023-03-14T03:29:23.717Z,1.47
2023-03-14T03:31:51.502Z,1.20
2023-03-14T03:34:20.952Z,0.90
2023-03-14T03:36:48.706Z,1.30
2023-03-14T03:39:16.454Z,1.20
2023-03-14T03:41:44.234Z,1.10
2023-03-14T03:44:13.536Z,1.13
2023-03-14T03:46:41.302Z,0.90
2023-03-14T03:49:09.052Z,1.10
2023-03-14T03:51:38.165Z,0.97
2023-03-14T03:54:06.105Z,0.70
2023-03-14T03:56:33.885Z,0.90
2023-03-14T03:59:01.667Z,1.00
2023-03-14T04:01:29.466Z,1.50
2023-03-14T04:03:57.505Z,1.00
2023-03-14T04:06:25.563Z,0.70
2023-03-14T04:08:55.749Z,0.80
2023-03-14T04:11:23.516Z,0.73
2023-03-14T04:13:51.291Z,0.73
2023-03-14T04:16:21.403Z,0.70
2023-03-14T04:18:49.260Z,0.70
2023-03-14T04:21:17.786Z,0.90
2023-03-14T04:23:45.597Z,0.90
2023-03-14T04:26:14.732Z,0.83
2023-03-14T04:28:42.544Z,0.70
2023-03-14T04:31:11.232Z,0.70
2023-03-14T04:33:39.198Z,0.80
2023-03-14T04:36:08.687Z,0.80
2023-03-14T04:38:36.857Z,1.00
2023-03-14T04:41:05.361Z,1.33
2023-03-14T04:43:34.666Z,0.80
2023-03-14T04:46:02.519Z,0.57
2023-03-14T04:48:30.799Z,0.93
2023-03-14T04:50:58.784Z,0.60
2023-03-14T04:53:26.603Z,0.77
2023-03-14T04:55:56.316Z,1.10
2023-03-14T04:58:24.890Z,0.60
2023-03-14T05:00:54.027Z,0.70
2023-03-14T05:03:21.906Z,1.00
2023-03-14T05:05:49.759Z,0.90
2023-03-14T05:08:17.567Z,0.70
2023-03-14T05:10:45.360Z,1.63
2023-03-14T05:13:13.170Z,0.60
2023-03-14T05:15:40.964Z,0.80
2023-03-14T05:18:10.328Z,0.70
2023-03-14T05:20:38.183Z,0.70
2023-03-14T05:23:05.994Z,0.70
2023-03-14T05:25:33.753Z,0.70
2023-03-14T05:28:01.544Z,0.63
2023-03-14T05:30:31.669Z,0.60
2023-03-14T05:32:59.526Z,0.80
2023-03-14T05:35:28.762Z,0.60
2023-03-14T05:37:56.645Z,0.60
2023-03-14T05:40:24.453Z,0.63
2023-03-14T05:42:53.105Z,0.70
2023-03-14T05:45:20.908Z,0.80
2023-03-14T05:47:49.061Z,0.87
2023-03-14T05:50:17.151Z,0.63
2023-03-14T05:52:46.265Z,0.60
2023-03-14T05:55:14.017Z,0.60
2023-03-14T05:57:41.817Z,0.77
2023-03-14T06:00:11.100Z,0.70
2023-03-14T06:02:38.901Z,0.77
2023-03-14T06:05:08.017Z,0.70
2023-03-14T06:07:35.897Z,0.60
2023-03-14T06:10:05.902Z,0.60
2023-03-14T06:12:33.929Z,0.57
2023-03-14T06:15:01.786Z,0.70
2023-03-14T06:17:29.580Z,0.80
2023-03-14T06:19:57.428Z,0.60
2023-03-14T06:22:25.215Z,0.60
2023-03-14T06:24:52.992Z,0.53
2023-03-14T06:27:22.253Z,0.90
2023-03-14T06:29:50.055Z,0.60
2023-03-14T06:32:19.122Z,0.93
2023-03-14T06:34:46.997Z,0.50
2023-03-14T06:37:14.778Z,0.57
2023-03-14T06:39:42.612Z,0.67
2023-03-14T06:42:10.838Z,0.70
2023-03-14T06:44:40.021Z,0.70
2023-03-14T06:47:07.853Z,0.70
2023-03-14T06:49:35.650Z,0.70
2023-03-14T06:52:03.554Z,0.50
2023-03-14T06:54:31.388Z,0.87
2023-03-14T06:56:59.196Z,0.60
2023-03-14T06:59:27.285Z,0.73
2023-03-14T07:01:56.410Z,0.60
2023-03-14T07:04:25.243Z,0.53
2023-03-14T07:06:53.088Z,0.60
2023-03-14T07:09:20.899Z,0.60
2023-03-14T07:11:48.675Z,0.57
2023-03-14T07:14:16.478Z,0.70
2023-03-14T07:16:44.287Z,0.50
2023-03-14T07:19:13.458Z,0.70
2023-03-14T07:21:41.225Z,0.70
2023-03-14T07:24:09.193Z,0.97
2023-03-14T07:26:37.171Z,0.50
2023-03-14T07:29:05.067Z,0.60
2023-03-14T07:31:33.163Z,0.73
2023-03-14T07:34:00.983Z,0.80
2023-03-14T07:36:30.112Z,0.60
2023-03-14T07:38:57.922Z,0.70
2023-03-14T07:41:25.790Z,0.60
2023-03-14T07:43:53.667Z,0.60
2023-03-14T07:46:21.536Z,0.70
2023-03-14T07:48:49.531Z,0.60
2023-03-14T07:51:17.378Z,0.60
2023-03-14T07:53:46.950Z,0.70
2023-03-14T07:56:14.840Z,0.70
2023-03-14T07:58:42.644Z,0.50
2023-03-14T08:01:11.033Z,0.60
2023-03-14T08:03:38.944Z,0.70
2023-03-14T08:06:07.216Z,0.70
2023-03-14T08:08:35.037Z,0.60
2023-03-14T08:11:09.579Z,0.53
2023-03-14T08:13:37.667Z,0.70
2023-03-14T08:16:06.670Z,0.80
2023-03-14T08:18:34.642Z,1.40
2023-03-14T08:21:02.522Z,0.67
2023-03-14T08:23:30.331Z,0.80
2023-03-14T08:25:58.106Z,0.70
2023-03-14T08:28:31.363Z,0.57
2023-03-14T08:30:59.657Z,0.70
2023-03-14T08:33:28.708Z,0.70
2023-03-14T08:35:56.996Z,0.60
2023-03-14T08:38:25.108Z,0.80
2023-03-14T08:40:58.160Z,0.60
2023-03-14T08:43:27.690Z,0.83
2023-03-14T08:45:55.771Z,0.70
2023-03-14T08:48:23.534Z,0.70
2023-03-14T08:50:51.345Z,0.70
2023-03-14T08:53:19.553Z,0.60
2023-03-14T08:55:47.353Z,0.73
2023-03-14T08:58:15.149Z,0.63
2023-03-14T09:00:44.284Z,0.63
2023-03-14T09:03:12.144Z,0.80
2023-03-14T09:05:39.939Z,0.70
2023-03-14T09:08:08.166Z,0.80
2023-03-14T09:10:35.956Z,0.60
2023-03-14T09:13:03.721Z,0.80
2023-03-14T09:15:31.524Z,0.80
2023-03-14T09:18:01.064Z,0.73
2023-03-14T09:20:29.279Z,0.70
2023-03-14T09:22:57.058Z,0.70
2023-03-14T09:25:24.868Z,0.60
2023-03-14T09:27:52.645Z,0.60
2023-03-14T09:30:20.462Z,0.60
2023-03-14T09:32:48.309Z,0.67
2023-03-14T09:35:17.667Z,0.63
2023-03-14T09:37:45.502Z,0.70
2023-03-14T09:40:15.300Z,0.60
2023-03-14T09:42:43.330Z,0.60
2023-03-14T09:45:17.702Z,0.60
2023-03-14T09:47:58.355Z,0.87
2023-03-14T09:50:32.691Z,0.60
2023-03-14T09:53:05.274Z,0.60
2023-03-14T09:55:36.232Z,0.60
2023-03-14T09:58:10.726Z,0.57
2023-03-14T10:00:38.813Z,0.50
2023-03-14T10:03:23.385Z,0.60
2023-03-14T10:05:52.791Z,0.50
2023-03-14T10:08:20.793Z,0.50
2023-03-14T10:10:48.587Z,0.60
2023-03-14T10:13:19.244Z,0.50
2023-03-14T10:15:53.258Z,0.77
2023-03-14T10:18:21.098Z,0.53
2023-03-14T10:20:50.877Z,0.60
2023-03-14T10:23:27.394Z,0.70
2023-03-14T10:26:06.898Z,0.50
2023-03-14T10:28:36.512Z,0.53
2023-03-14T10:31:05.162Z,0.50
2023-03-14T10:33:34.584Z,0.77
2023-03-14T10:36:04.843Z,0.60
2023-03-14T10:38:35.993Z,0.60
2023-03-14T10:41:15.333Z,0.60
2023-03-14T10:43:43.615Z,0.50
2023-03-14T10:46:16.379Z,0.60
2023-03-14T10:48:44.214Z,0.57
2023-03-14T10:51:19.854Z,0.60
2023-03-14T10:53:50.643Z,0.50
2023-03-14T10:56:20.892Z,0.53
2023-03-14T10:58:50.958Z,0.60
2023-03-14T11:01:38.566Z,0.60
2023-03-14T11:04:23.703Z,0.70
2023-03-14T11:06:58.184Z,0.50
2023-03-14T11:09:34.241Z,0.60
2023-03-14T11:12:10.401Z,0.70
2023-03-14T11:14:45.446Z,0.73
2023-03-14T11:17:19.677Z,0.53
2023-03-14T11:20:07.074Z,0.60
2023-03-14T11:22:39.588Z,0.60
2023-03-14T11:25:17.221Z,0.60
2023-03-14T11:27:48.975Z,0.60
2023-03-14T11:30:21.459Z,0.70
2023-03-14T11:32:58.192Z,0.60
2023-03-14T11:35:32.459Z,0.97
2023-03-14T11:38:11.839Z,0.60
2023-03-14T11:40:42.242Z,0.60
2023-03-14T11:43:16.738Z,0.70
2023-03-14T11:45:45.701Z,0.80
2023-03-14T11:48:22.752Z,0.60
2023-03-14T11:50:54.535Z,0.60
2023-03-14T11:53:27.907Z,0.70
2023-03-14T11:55:57.008Z,0.60
2023-03-14T11:58:28.252Z,0.80
2023-03-14T12:00:57.601Z,0.60
2023-03-14T12:03:33.086Z,0.70
2023-03-14T12:06:18.295Z,0.70
2023-03-14T12:08:49.591Z,0.60
2023-03-14T12:11:29.962Z,0.60
2023-03-14T12:13:57.895Z,0.60
2023-03-14T12:16:40.918Z,0.60
2023-03-14T12:19:33.481Z,0.60
2023-03-14T12:22:09.406Z,0.70
2023-03-14T12:24:39.471Z,0.73
2023-03-14T12:27:13.806Z,0.70
2023-03-14T12:30:02.399Z,0.67
2023-03-14T12:32:33.157Z,0.70
2023-03-14T12:35:29.804Z,0.70
2023-03-14T12:38:00.062Z,0.90
2023-03-14T12:40:33.625Z,0.70
2023-03-14T12:43:04.261Z,0.60
2023-03-14T12:45:34.288Z,0.80
2023-03-14T12:48:12.822Z,0.90
2023-03-14T12:50:45.306Z,0.60
2023-03-14T12:53:32.023Z,0.80
2023-03-14T12:56:07.351Z,0.60
2023-03-14T12:58:40.742Z,0.70
2023-03-14T13:01:18.421Z,0.70
2023-03-14T13:03:49.021Z,0.70
2023-03-14T13:06:40.977Z,0.87
2023-03-14T13:09:52.983Z,0.63
2023-03-14T13:12:28.712Z,0.90
2023-03-14T13:15:01.883Z,1.00
2023-03-14T13:17:36.955Z,0.70
2023-03-14T13:20:13.183Z,0.90
2023-03-14T13:22:47.409Z,0.70
2023-03-14T13:25:15.244Z,1.00
2023-03-14T13:27:44.545Z,0.80
2023-03-14T13:30:23.832Z,0.80
2023-03-14T13:32:52.909Z,1.20
2023-03-14T13:35:23.733Z,1.10
2023-03-14T13:38:10.756Z,1.50
2023-03-14T13:40:39.725Z,1.37
2023-03-14T13:43:16.078Z,1.00
2023-03-14T13:45:50.321Z,0.97
2023-03-14T13:48:18.899Z,0.93
2023-03-14T13:50:55.643Z,0.70
2023-03-14T13:53:23.861Z,0.90
2023-03-14T13:55:52.417Z,0.80
2023-03-14T13:58:29.209Z,0.87
2023-03-14T14:01:05.688Z,0.87
2023-03-14T14:03:36.086Z,1.10
2023-03-14T14:06:04.204Z,0.80
2023-03-14T14:08:32.366Z,1.10
2023-03-14T14:11:04.650Z,1.33
2023-03-14T14:13:36.862Z,1.23
2023-03-14T14:16:07.038Z,1.47
2023-03-14T14:18:36.431Z,1.00
2023-03-14T14:21:05.412Z,0.90
2023-03-14T14:23:33.541Z,1.20
2023-03-14T14:26:01.728Z,0.90
2023-03-14T14:28:31.776Z,1.03
2023-03-14T14:31:21.981Z,1.10
2023-03-14T14:33:57.406Z,1.10
2023-03-14T14:36:27.884Z,1.33
2023-03-14T14:38:59.378Z,1.50
2023-03-14T14:41:31.493Z,1.57
2023-03-14T14:44:00.836Z,1.17
2023-03-14T14:46:32.673Z,1.40
2023-03-14T14:49:05.833Z,1.13
2023-03-14T14:51:40.648Z,1.13
2023-03-14T14:54:19.388Z,1.30
2023-03-14T14:56:52.747Z,1.00
2023-03-14T14:59:25.026Z,1.30
2023-03-14T15:01:58.285Z,1.60
2023-03-14T15:04:26.336Z,1.67
2023-03-14T15:06:55.105Z,4.53
2023-03-14T15:09:22.935Z,1.20
2023-03-14T15:11:51.315Z,1.30
2023-03-14T15:14:19.106Z,1.37
2023-03-14T15:16:46.900Z,0.90
2023-03-14T15:19:25.209Z,1.40
2023-03-14T15:21:54.064Z,1.30
2023-03-14T15:24:22.044Z,1.17
2023-03-14T15:26:49.892Z,1.97
2023-03-14T15:29:17.718Z,1.43
2023-03-14T15:31:45.868Z,1.20
2023-03-14T15:34:14.084Z,1.47
2023-03-14T15:36:43.212Z,1.30
2023-03-14T15:39:12.930Z,1.60
2023-03-14T15:41:40.723Z,1.80
2023-03-14T15:44:08.576Z,1.53
2023-03-14T15:46:36.470Z,1.40
2023-03-14T15:49:04.254Z,1.20
2023-03-14T15:51:33.098Z,1.70
2023-03-14T15:54:02.218Z,1.27
2023-03-14T15:56:31.944Z,2.20
2023-03-14T15:59:00.237Z,1.97
2023-03-14T16:01:28.162Z,1.73
2023-03-14T16:03:56.728Z,2.10
2023-03-14T16:06:24.555Z,2.27
2023-03-14T16:08:52.350Z,1.20
2023-03-14T16:11:22.750Z,1.70
2023-03-14T16:13:51.190Z,2.87
2023-03-14T16:16:19.069Z,4.10
2023-03-14T16:18:46.987Z,1.90
2023-03-14T16:21:16.428Z,1.20
2023-03-14T16:23:44.249Z,2.40
2023-03-14T16:26:15.451Z,1.40
2023-03-14T16:28:45.395Z,1.03
2023-03-14T16:31:16.232Z,1.00
2023-03-14T16:33:44.567Z,1.43
2023-03-14T16:36:14.381Z,1.93
2023-03-14T16:38:44.011Z,1.00
2023-03-14T16:41:14.072Z,1.33
2023-03-14T16:43:42.422Z,2.10
2023-03-14T16:46:15.001Z,1.30
2023-03-14T16:48:42.813Z,1.70
2023-03-14T16:51:10.796Z,3.23
2023-03-14T16:53:38.712Z,2.10
2023-03-14T16:56:07.357Z,1.37
2023-03-14T16:58:35.408Z,1.07
2023-03-14T17:01:10.459Z,1.07
2023-03-14T17:03:41.657Z,1.27
2023-03-14T17:06:12.385Z,1.00
2023-03-14T17:08:40.224Z,1.30
2023-03-14T17:11:09.107Z,1.40
2023-03-14T17:13:37.228Z,1.30
2023-03-14T17:16:05.808Z,1.40
2023-03-14T17:18:33.611Z,1.40
2023-03-14T17:21:02.859Z,1.40
2023-03-14T17:23:32.466Z,1.13
2023-03-14T17:26:00.392Z,1.20
2023-03-14T17:28:29.481Z,1.70
2023-03-14T17:31:08.683Z,1.37
2023-03-14T17:33:37.317Z,1.60
2023-03-14T17:36:08.158Z,1.80
2023-03-14T17:38:36.571Z,1.50
2023-03-14T17:41:04.458Z,1.50
2023-03-14T17:43:33.582Z,1.30
2023-03-14T17:46:02.961Z,1.17
2023-03-14T17:48:30.777Z,1.20
2023-03-14T17:51:02.029Z,0.90
2023-03-14T17:53:31.898Z,1.10
2023-03-14T17:55:59.784Z,0.90
2023-03-14T17:58:28.172Z,1.13
2023-03-14T18:00:56.691Z,0.97
2023-03-14T18:03:24.489Z,0.97
2023-03-14T18:05:52.302Z,1.10
2023-03-14T18:08:20.070Z,1.10
2023-03-14T18:10:53.925Z,0.90
2023-03-14T18:13:21.701Z,1.57
2023-03-14T18:15:49.557Z,16.07
2023-03-14T18:18:17.443Z,27.23
2023-03-14T18:20:50.685Z,8.33
2023-03-14T18:23:18.494Z,10.13
2023-03-14T18:25:46.352Z,2.23
2023-03-14T18:28:16.068Z,1.20
2023-03-14T18:30:44.279Z,0.97
2023-03-14T18:33:13.057Z,0.90
2023-03-14T18:35:40.907Z,1.00
2023-03-14T18:38:08.718Z,0.97
2023-03-14T18:40:36.639Z,0.93
2023-03-14T18:43:05.373Z,0.90
2023-03-14T18:45:34.523Z,0.90
2023-03-14T18:48:02.295Z,1.10
2023-03-14T18:50:30.106Z,0.90
2023-03-14T18:52:57.862Z,1.30
2023-03-14T18:55:25.628Z,1.33
2023-03-14T18:57:53.615Z,1.70
2023-03-14T19:00:22.263Z,1.80
2023-03-14T19:02:52.630Z,2.30
2023-03-14T19:05:20.569Z,1.90
2023-03-14T19:07:48.383Z,1.63
2023-03-14T19:10:16.332Z,1.70
2023-03-14T19:12:44.101Z,1.67
2023-03-14T19:15:12.798Z,1.80
2023-03-14T19:17:40.594Z,1.10
2023-03-14T19:20:11.750Z,1.10
2023-03-14T19:22:39.492Z,1.20
2023-03-14T19:25:08.093Z,1.30
2023-03-14T19:27:35.895Z,1.60
2023-03-14T19:30:03.739Z,1.43
2023-03-14T19:32:31.765Z,1.60
2023-03-14T19:34:59.828Z,1.57
2023-03-14T19:37:28.933Z,1.60
2023-03-14T19:39:56.682Z,1.60
2023-03-14T19:42:24.449Z,2.17
2023-03-14T19:44:53.418Z,1.70
2023-03-14T19:47:21.217Z,1.90
2023-03-14T19:49:48.994Z,1.50
2023-03-14T19:52:17.023Z,1.00
2023-03-14T19:54:46.497Z,1.10
2023-03-14T19:57:14.253Z,1.20
2023-03-14T19:59:42.048Z,1.53
2023-03-14T20:02:11.474Z,1.70
2023-03-14T20:04:39.248Z,1.90
2023-03-14T20:07:07.005Z,1.50
2023-03-14T20:09:34.787Z,1.30
2023-03-14T20:12:04.248Z,1.40
2023-03-14T20:14:32.060Z,1.40
2023-03-14T20:16:59.900Z,1.30
2023-03-14T20:19:28.661Z,1.23
2023-03-14T20:21:56.533Z,2.00
2023-03-14T20:24:24.306Z,1.47
2023-03-14T20:26:52.060Z,1.40
2023-03-14T20:29:21.186Z,1.73
2023-03-14T20:31:48.946Z,1.10
2023-03-14T20:34:16.727Z,1.20
2023-03-14T20:36:45.004Z,1.10
2023-03-14T20:39:13.994Z,1.20
2023-03-14T20:41:42.323Z,1.47
2023-03-14T20:44:11.151Z,1.50
2023-03-14T20:46:40.574Z,1.10
2023-03-14T20:49:08.450Z,1.50
2023-03-14T20:51:36.547Z,1.47
2023-03-14T20:54:04.509Z,1.27
2023-03-14T20:56:32.336Z,1.60
2023-03-14T20:59:00.130Z,1.60
2023-03-14T21:01:28.137Z,1.53
2023-03-14T21:03:57.300Z,1.80
2023-03-14T21:06:25.757Z,2.10
2023-03-14T21:08:53.567Z,1.80
2023-03-14T21:11:21.357Z,2.37
2023-03-14T21:13:49.135Z,1.83
2023-03-14T21:16:17.009Z,1.50
2023-03-14T21:18:44.868Z,1.80
2023-03-14T21:21:14.410Z,1.90
2023-03-14T21:23:42.157Z,1.67
2023-03-14T21:26:09.925Z,1.70
2023-03-14T21:28:37.717Z,1.60
2023-03-14T21:31:07.252Z,1.60
2023-03-14T21:33:35.877Z,1.20
2023-03-14T21:36:03.736Z,1.23
2023-03-14T21:38:33.174Z,1.00
2023-03-14T21:41:01.380Z,1.00
2023-03-14T21:43:29.741Z,1.10
2023-03-14T21:45:57.515Z,1.40
2023-03-14T21:48:25.556Z,0.90
2023-03-14T21:50:53.882Z,1.30
2023-03-14T21:53:21.724Z,1.20
2023-03-14T21:55:53.717Z,1.60
2023-03-14T21:58:21.488Z,1.53
2023-03-14T22:00:49.812Z,1.30
2023-03-14T22:03:17.816Z,1.40
2023-03-14T22:05:47.271Z,1.47
2023-03-14T22:08:16.287Z,1.40
2023-03-14T22:10:45.149Z,1.50
2023-03-14T22:13:15.374Z,1.40
2023-03-14T22:15:45.640Z,0.80
2023-03-14T22:18:13.809Z,0.90
2023-03-14T22:20:41.737Z,1.03
2023-03-14T22:23:10.343Z,0.97
2023-03-14T22:25:41.354Z,1.10
2023-03-14T22:28:09.323Z,1.00
2023-03-14T22:30:38.865Z,0.93
2023-03-14T22:33:06.993Z,1.00
2023-03-14T22:35:35.878Z,1.17
2023-03-14T22:38:03.655Z,1.10
2023-03-14T22:40:31.431Z,1.70
2023-03-14T22:42:59.385Z,1.43
2023-03-14T22:45:27.347Z,1.10
2023-03-14T22:47:56.492Z,1.20
2023-03-14T22:50:24.284Z,1.30
2023-03-14T22:52:52.085Z,1.20
2023-03-14T22:55:19.882Z,1.40
2023-03-14T22:57:47.825Z,1.27
2023-03-14T23:00:16.777Z,1.27
2023-03-14T23:02:44.648Z,1.90
2023-03-14T23:05:13.876Z,1.70
2023-03-14T23:07:41.646Z,1.37
2023-03-14T23:10:11.152Z,1.50
2023-03-14T23:12:38.966Z,1.80
2023-03-14T23:15:08.410Z,1.53
2023-03-14T23:17:36.629Z,1.70
2023-03-14T23:20:06.533Z,1.77
2023-03-14T23:22:35.752Z,1.60
2023-03-14T23:25:04.198Z,1.90
2023-03-14T23:27:32.014Z,1.87
2023-03-14T23:29:59.904Z,1.90
2023-03-14T23:32:28.285Z,1.90
2023-03-14T23:34:56.133Z,1.97
2023-03-14T23:37:24.661Z,1.70
2023-03-14T23:39:53.932Z,1.97
2023-03-14T23:42:21.893Z,1.83
2023-03-14T23:44:49.686Z,2.23
2023-03-14T23:47:17.546Z,1.70
2023-03-14T23:49:45.312Z,1.80
2023-03-14T23:52:13.346Z,1.90
2023-03-14T23:54:41.097Z,1.70
2023-03-14T23:57:10.432Z,2.40
2023-03-14T23:59:39.216Z,2.30
